createdAt,value
2024-03-28T00:00:07.046Z,6.2
2024-03-28T00:12:06.771Z,6.2
2024-03-28T00:24:06.634Z,6.2
2024-03-28T00:36:06.870Z,6.2
2024-03-28T00:48:06.637Z,6.1
2024-03-28T01:00:10.436Z,6.2
2024-03-28T01:12:07.957Z,6.4
2024-03-28T01:24:07.918Z,6.5
2024-03-28T01:36:06.668Z,6.6
2024-03-28T01:48:06.995Z,6.6
2024-03-28T02:00:06.906Z,6.6
2024-03-28T02:12:06.731Z,6.6
2024-03-28T02:24:07.076Z,6.6
2024-03-28T02:36:06.897Z,6.4
2024-03-28T02:48:07.169Z,6.4
2024-03-28T03:00:06.727Z,6.5
2024-03-28T03:12:06.893Z,6.4
2024-03-28T03:24:07.045Z,6.2
2024-03-28T03:36:06.981Z,6
2024-03-28T03:48:06.828Z,6.1
2024-03-28T04:00:06.909Z,6.2
2024-03-28T04:12:07.311Z,6.2
2024-03-28T04:24:06.799Z,6.2
2024-03-28T04:36:07.249Z,6.2
2024-03-28T04:48:06.904Z,6.2
2024-03-28T05:00:07.363Z,6.4
2024-03-28T05:12:06.839Z,6.4
2024-03-28T05:24:07.211Z,6.4
2024-03-28T05:36:06.937Z,6.4
2024-03-28T05:48:06.970Z,6.4
2024-03-28T06:00:06.915Z,6.4
2024-03-28T06:12:07.291Z,6.2
2024-03-28T06:24:07.236Z,6.2
2024-03-28T06:36:07.219Z,6
2024-03-28T06:48:07.358Z,6
2024-03-28T07:00:07.617Z,6
2024-03-28T07:12:07.107Z,6
2024-03-28T07:24:07.000Z,6
2024-03-28T07:36:07.120Z,5.5
2024-03-28T07:48:07.137Z,5.8
2024-03-28T08:00:07.280Z,6.5
2024-03-28T08:12:07.317Z,11.6
2024-03-28T08:24:07.431Z,14.4
2024-03-28T08:36:07.189Z,16.4
2024-03-28T08:48:07.111Z,16.9
2024-03-28T09:00:07.104Z,15
2024-03-28T09:12:07.191Z,16.1
2024-03-28T09:24:07.204Z,15.7
2024-03-28T09:36:07.371Z,16.5
2024-03-28T09:48:07.311Z,17.7
2024-03-28T10:00:08.264Z,14.1
2024-03-28T10:12:07.663Z,9.8
2024-03-28T10:24:07.340Z,9.9
2024-03-28T10:36:08.338Z,9.9
2024-03-28T10:48:07.470Z,9.7
2024-03-28T11:00:08.116Z,10.1
2024-03-28T11:12:07.202Z,10.8
2024-03-28T11:24:08.019Z,11
2024-03-28T11:36:07.310Z,11.1
2024-03-28T11:48:07.323Z,11.3
2024-03-28T12:00:08.086Z,10.2
2024-03-28T12:12:07.406Z,10.4
2024-03-28T12:24:07.306Z,11.3
2024-03-28T12:36:09.156Z,11.2
2024-03-28T12:48:07.508Z,11
2024-03-28T13:00:07.432Z,11.4
2024-03-28T13:12:07.811Z,11.1
2024-03-28T13:24:07.364Z,11.4
2024-03-28T13:36:07.765Z,10.4
2024-03-28T13:48:07.534Z,10.1
2024-03-28T14:00:08.102Z,8.3
2024-03-28T14:12:07.537Z,8.6
2024-03-28T14:24:07.687Z,8.7
2024-03-28T14:36:08.012Z,8.4
2024-03-28T14:48:07.504Z,8.6
2024-03-28T15:00:07.732Z,8.9
2024-03-28T15:12:07.856Z,8.4
2024-03-28T15:24:08.313Z,8.8
2024-03-28T15:36:08.819Z,8.7
2024-03-28T15:48:07.537Z,8.8
2024-03-28T16:00:07.872Z,8.7
2024-03-28T16:12:07.800Z,8.5
2024-03-28T16:24:08.824Z,8.1
2024-03-28T16:36:08.167Z,7.7
2024-03-28T16:48:08.121Z,7.8
2024-03-28T17:00:07.873Z,7.9
2024-03-28T17:12:07.623Z,8
2024-03-28T17:24:07.581Z,8.1
2024-03-28T17:36:08.198Z,8
2024-03-28T17:48:08.153Z,8
2024-03-28T18:00:07.933Z,8
2024-03-28T18:12:07.684Z,8
2024-03-28T18:24:08.088Z,7.9
2024-03-28T18:36:07.847Z,8
2024-03-28T18:48:07.949Z,7.9
2024-03-28T19:00:10.005Z,7.8
2024-03-28T19:12:07.798Z,7.8
2024-03-28T19:24:08.022Z,8.1
2024-03-28T19:36:07.732Z,8.3
2024-03-28T19:48:08.329Z,8.3
2024-03-28T20:00:08.324Z,8.5
2024-03-28T20:12:10.800Z,8.5
2024-03-28T20:24:07.999Z,8.4
2024-03-28T20:36:08.128Z,8.3
2024-03-28T20:48:08.208Z,8.3
2024-03-28T21:00:08.070Z,8.2
2024-03-28T21:12:07.890Z,8.2
2024-03-28T21:24:08.204Z,8.1
2024-03-28T21:36:08.749Z,8.1
2024-03-28T21:48:08.169Z,8.2
2024-03-28T22:00:08.061Z,8.2
2024-03-28T22:12:11.775Z,8.2
2024-03-28T22:24:07.938Z,8.1
2024-03-28T22:36:09.061Z,8
2024-03-28T22:48:08.034Z,8
2024-03-28T23:00:08.694Z,8
2024-03-28T23:12:08.014Z,8
2024-03-28T23:24:07.951Z,8
2024-03-28T23:36:08.276Z,7.9
2024-03-28T23:48:08.078Z,8
